Погода Клекачна неделю

Люблинское воеводство, Польша

24 - 30 мая
  • 24мая
    Сегодня
    +12°
    +26°
    Практически безоблачно
    ВремяПогодаТемператураВлажностьДавлениеВетер, м/сВероятность осадков
    02:00Ясно и безоблачно+14°C64 %739 мм3.1 м/с2 %
    05:00Небольшая облачность+12°C72 %739 мм2.6 м/с2 %
    08:00Ясно и безоблачно+18°C62 %741 мм2.7 м/с2 %
    11:00Практически безоблачно+23°C46 %741 мм2.9 м/с2 %
    14:00Практически безоблачно+26°C28 %741 мм5.1 м/с2 %
    17:00Практически безоблачно+25°C27 %740 мм4.5 м/с2 %
    20:00Ясно и безоблачно+21°C42 %741 мм5.1 м/с1 %
    23:00Ясно и безоблачно+16°C60 %741 мм3.7 м/с1 %
  • 25мая
    Суббота
    +11°
    +26°
    Облачно с прояснениями
    ВремяПогодаТемператураВлажностьДавлениеВетер, м/сВероятность осадков
    02:00Ясно и безоблачно+14°C72 %741 мм2.8 м/с2 %
    05:00Ясно и безоблачно+12°C81 %741 мм2.2 м/с2 %
    08:00Небольшая облачность+18°C63 %742 мм1.9 м/с2 %
    11:00Облачно с прояснениями+23°C47 %742 мм2.0 м/с2 %
    14:00Облачно с прояснениями+26°C32 %741 мм4.1 м/с32 %
    17:00Практически безоблачно+24°C41 %741 мм1.2 м/с38 %
    20:00Ясно и безоблачно+19°C53 %741 мм2.1 м/с4 %
    23:00Ясно и безоблачно+15°C63 %741 мм2.1 м/с2 %
  • 26мая
    Воскресенье
    +10°
    +26°
    Ясно и безоблачно
    ВремяПогодаТемператураВлажностьДавлениеВетер, м/сВероятность осадков
    02:00Практически безоблачно+13°C75 %741 мм2.3 м/с2 %
    05:00Ясно и безоблачно+11°C87 %741 мм2.0 м/с2 %
    08:00Ясно и безоблачно+18°C65 %742 мм1.4 м/с2 %
    11:00Облачно с прояснениями+24°C37 %742 мм3.0 м/с2 %
    14:00Ясно и безоблачно+26°C27 %742 мм3.7 м/с9 %
    17:00Практически безоблачно+24°C23 %741 мм4.5 м/с17 %
    20:00Ясно и безоблачно+20°C30 %741 мм3.4 м/с3 %
    23:00Небольшая облачность+15°C36 %741 мм2.8 м/с2 %
  • 27мая
    Понедельник
    +10°
    +25°
    Практически безоблачно
    ВремяПогодаТемператураВлажностьДавлениеВетер, м/сВероятность осадков
    02:00Практически безоблачно+11°C49 %742 мм2.5 м/с2 %
    05:00Ясно и безоблачно+10°C53 %742 мм2.4 м/с2 %
    08:00Практически безоблачно+18°C47 %743 мм2.4 м/с2 %
    11:00Облачно с прояснениями+23°C28 %743 мм3.9 м/с2 %
    14:00Практически безоблачно+25°C25 %742 мм3.5 м/с2 %
    17:00Ясно и безоблачно+24°C26 %742 мм4.3 м/с4 %
    20:00Небольшая облачность+20°C35 %741 мм3.7 м/с2 %
    23:00Ясно и безоблачно+14°C50 %741 мм2.8 м/с2 %
  • 28мая
    Вторник
    +10°
    +26°
    Облачно с прояснениями
    ВремяПогодаТемператураВлажностьДавлениеВетер, м/сВероятность осадков
    02:00Ясно и безоблачно+11°C62 %741 мм2.7 м/с2 %
    05:00Практически безоблачно+11°C69 %740 мм2.0 м/с2 %
    08:00Ясно и безоблачно+18°C50 %741 мм2.5 м/с2 %
    11:00Небольшая облачность+24°C28 %741 мм5.4 м/с7 %
    14:00Облачно с прояснениями+25°C24 %740 мм5.6 м/с17 %
    17:00Пасмурно, сплошная облачность+24°C23 %738 мм5.2 м/с24 %
    20:00Небольшая облачность+20°C38 %738 мм2.7 м/с8 %
    23:00Небольшая облачность+14°C53 %739 мм2.1 м/с2 %
Мы используем cookies
Соглашаюсь